LAKE NATOMA (NIMBUS DAM) (NAT)

Elevation: 132' · AMERICAN R basin · Operator: US Bureau of Reclamation

Provisional data, subject to change.
Query executed Wednesday at 16:31:00   clock

Select a sensor type for a plot of data.
Note: Reservoir Flows are daily averages.

Earlier

Date RES ELE    STORAGE    RES CHG    OUTFLOW    INFLOW    SPILL    DIS PWR   
 FEET   AF   AF   CFS   CFS   CFS   CFS  
05/30/2016 124.32 8421 625 4208 4527 0 4124
05/31/2016 122.89 7742 -679 4154 3816 0 4033
06/01/2016 123.56 8054 312 4063 4225 0 3967
06/02/2016 124.07 8296 242 4061 4187 0 4002
06/03/2016 124.05 8286 -10 4057 4057 0 4004
06/04/2016 124.03 8276 -10 4064 4062 0 4001
06/05/2016 123.00 7791 -485 4078 3837 0 4003
06/06/2016 123.79 8162 371 4114 4306 1226 2805
06/07/2016 123.47 8012 -150 4110 4038 2019 2008
06/08/2016 123.65 8097 85 4093 4140 2042 1968
06/09/2016 123.05 7815 -282 4063 3925 1069 2911
06/10/2016 123.21 7890 75 4071 4113 0 4001
06/11/2016 123.71 8125 235 4026 4148 0 3966
06/12/2016 123.22 7894 -231 3982 3870 0 3922
06/13/2016 123.74 8139 245 4005 4132 0 3935
06/14/2016 123.50 8026 -113 4036 3981 0 3959
06/15/2016 124.03 8276 250 4076 4205 0 3988
06/16/2016 123.45 8003 -273 4109 3974 0 4018
06/17/2016 123.88 8205 202 4062 4167 0 3971
06/18/2016 124.50 8511 306 4059 4217 0 3977
06/19/2016 124.28 8401 -110 4048 3997 0 3974
06/20/2016 123.88 8205 -196 4042 3947 0 3976
06/21/2016 123.99 8256 51 4045 4076 0 3979
06/22/2016 123.80 8167 -89 4039 3999 0 3979
06/23/2016 123.32 7941 -226 4049 3940 0 3978
06/24/2016 124.02 8271 330 4063 4234 0 3979
06/25/2016 123.60 8073 -198 4070 3975 0 3979
06/26/2016 123.72 8129 56 4053 4086 0 3977
06/27/2016 123.57 8059 -70 4030 4000 0 3977
06/28/2016 122.70 7656 -403 4024 3826 0 3978
06/29/2016 -- -- -- -- -- -- --

Later | Latest

Warning! This data is preliminary and subject to revision.

Show NAT Map | Plot NAT Data | 1 Month NAT Data | Real-Time NAT Data | NAT Info